Time;durP1;ratioP1;P1;durP2;ratioP2;P2;SDS_P1;SDS_P2;PMS_P1;PMS_P2;Temp;Humidity;BMP_temperature;BMP_pressure;BME280_temperature;BME280_humidity;BME280_pressure;Samples;Min_cycle;Max_cycle;Signal;HPM_P1;HPM_P2
2022/05/08 00:00:07;;;;;;;14.73;12.87;;;;;;;13.43;81.59;97195.50;4958908;28;20259;-74
2022/05/08 00:02:34;;;;;;;13.30;11.60;;;;;;;13.27;82.09;97189.13;4973589;28;20192;-74
2022/05/08 00:04:59;;;;;;;18.43;12.87;;;;;;;13.33;82.37;97187.41;4961047;28;20213;-74
2022/05/08 00:07:24;;;;;;;12.80;11.50;;;;;;;13.30;82.65;97190.50;4955222;28;20250;-74
2022/05/08 00:09:50;;;;;;;13.20;11.87;;;;;;;13.21;83.14;97182.16;4957526;28;20255;-74
2022/05/08 00:12:17;;;;;;;14.37;12.87;;;;;;;13.08;83.70;97190.31;4973842;28;20197;-74
2022/05/08 00:14:43;;;;;;;13.93;12.53;;;;;;;13.05;84.08;97188.13;4973287;28;20331;-75
2022/05/08 00:17:11;;;;;;;13.63;11.97;;;;;;;12.98;84.74;97181.41;4974087;28;20173;-74
2022/05/08 00:19:38;;;;;;;14.37;12.60;;;;;;;12.97;84.77;97177.97;4972765;28;20633;-75
2022/05/08 00:22:05;;;;;;;15.10;12.40;;;;;;;12.93;85.48;97187.34;4967754;28;20213;-74
2022/05/08 00:24:31;;;;;;;14.07;12.17;;;;;;;12.90;85.87;97185.19;4954701;28;20232;-74
2022/05/08 00:26:56;;;;;;;14.87;13.10;;;;;;;12.91;85.87;97186.78;4957548;28;20232;-74
2022/05/08 00:29:21;;;;;;;14.33;12.47;;;;;;;12.92;86.35;97185.75;4972296;28;20338;-75
2022/05/08 00:31:47;;;;;;;14.40;12.53;;;;;;;12.96;86.29;97186.91;4972935;28;20234;-74
2022/05/08 00:34:12;;;;;;;16.93;12.43;;;;;;;13.02;85.41;97179.91;4966243;28;20196;-74
2022/05/08 00:36:38;;;;;;;13.30;11.77;;;;;;;12.91;85.49;97179.69;4954674;28;20248;-74
2022/05/08 00:39:03;;;;;;;14.03;12.03;;;;;;;13.21;84.30;97192.69;4956015;28;20211;-75
2022/05/08 00:41:28;;;;;;;16.67;12.40;;;;;;;13.23;83.92;97179.31;4973513;28;20227;-74
2022/05/08 00:43:54;;;;;;;13.20;11.20;;;;;;;12.98;84.91;97182.22;4971849;28;20184;-75
2022/05/08 00:46:19;;;;;;;13.43;11.93;;;;;;;12.82;85.92;97178.44;4973514;28;20201;-74
2022/05/08 00:48:45;;;;;;;12.27;11.07;;;;;;;12.81;86.07;97182.13;4973604;28;20186;-75
2022/05/08 00:51:12;;;;;;;13.57;11.20;;;;;;;12.76;86.98;97187.25;4954866;28;20208;-75
2022/05/08 00:53:41;;;;;;;12.63;11.33;;;;;;;12.73;87.16;97179.84;4954450;28;20185;-75
2022/05/08 00:56:09;;;;;;;14.10;11.80;;;;;;;12.61;87.66;97181.66;4954818;28;20200;-75
2022/05/08 00:58:37;;;;;;;12.77;11.40;;;;;;;12.86;87.29;97186.69;4954457;28;20248;-76
2022/05/08 01:01:03;;;;;;;12.77;11.37;;;;;;;12.81;87.27;97184.75;4969938;28;20211;-76
2022/05/08 01:03:29;;;;;;;11.73;10.53;;;;;;;12.82;87.04;97185.53;4954262;28;20845;-75
2022/05/08 01:05:56;;;;;;;13.03;11.73;;;;;;;12.77;87.80;97183.59;4954412;28;20228;-75
2022/05/08 01:08:23;;;;;;;14.07;11.20;;;;;;;12.80;87.52;97180.50;4954431;28;20193;-75
2022/05/08 01:10:49;;;;;;;13.10;11.57;;;;;;;12.76;87.45;97178.59;4954616;28;20192;-76
2022/05/08 01:13:15;;;;;;;12.70;11.40;;;;;;;12.67;88.15;97187.84;4974669;28;20232;-75
2022/05/08 01:15:45;;;;;;;12.20;11.00;;;;;;;12.56;88.88;97181.56;4970011;28;20335;-75
2022/05/08 01:18:12;;;;;;;14.07;11.57;;;;;;;12.62;88.90;97187.72;4968736;28;20362;-75
2022/05/08 01:20:39;;;;;;;13.03;11.70;;;;;;;12.48;89.49;97187.16;4975421;28;20215;-75
2022/05/08 01:23:05;;;;;;;14.30;11.20;;;;;;;12.44;89.57;97186.81;4976454;28;20191;-75
2022/05/08 01:25:34;;;;;;;12.93;11.33;;;;;;;12.45;90.03;97185.78;4959774;28;20195;-75
2022/05/08 01:28:03;;;;;;;12.37;11.17;;;;;;;12.44;89.96;97184.19;4976737;28;20637;-75
2022/05/08 01:30:29;;;;;;;13.47;12.07;;;;;;;12.41;89.76;97179.38;4962282;28;20617;-76
2022/05/08 01:32:55;;;;;;;13.30;10.90;;;;;;;12.29;89.72;97175.16;4973937;28;20184;-75
2022/05/08 01:35:20;;;;;;;13.07;11.67;;;;;;;12.12;91.66;97177.63;4956481;28;20574;-75
2022/05/08 01:37:46;;;;;;;16.97;12.43;;;;;;;12.33;89.83;97173.66;4967640;28;20259;-75
2022/05/08 01:40:12;;;;;;;13.43;12.00;;;;;;;12.43;89.38;97176.50;4965458;28;20291;-75
2022/05/08 01:42:37;;;;;;;17.93;12.97;;;;;;;12.37;89.81;97180.06;4958216;28;20276;-75
2022/05/08 01:45:03;;;;;;;17.00;13.93;;;;;;;12.27;90.37;97179.81;4957534;28;20916;-76
2022/05/08 01:50:13;;;;;;;18.17;14.80;;;;;;;12.18;91.04;97166.22;4976704;28;20200;-75
2022/05/08 01:52:38;;;;;;;20.03;15.40;;;;;;;12.30;90.74;97174.94;4975353;28;20184;-74
2022/05/08 01:55:04;;;;;;;18.13;15.03;;;;;;;12.28;90.35;97186.69;4975980;28;20188;-75
2022/05/08 01:57:29;;;;;;;20.20;14.90;;;;;;;12.00;92.02;97176.81;4976581;28;20634;-75
2022/05/08 01:59:54;;;;;;;18.63;14.67;;;;;;;11.98;92.57;97171.78;4965527;28;20205;-76
2022/05/08 02:02:20;;;;;;;16.57;14.33;;;;;;;11.93;92.79;97174.28;4957110;28;20706;-75
2022/05/08 02:04:46;;;;;;;15.43;13.83;;;;;;;11.91;93.55;97171.09;4973566;28;20604;-75
2022/05/08 02:07:11;;;;;;;17.67;14.43;;;;;;;11.84;93.99;97180.88;4976504;28;20213;-75
2022/05/08 02:09:37;;;;;;;16.10;14.40;;;;;;;11.91;93.95;97175.53;4959118;28;20177;-74
2022/05/08 02:12:03;;;;;;;16.10;14.30;;;;;;;11.88;94.03;97182.03;4976251;28;20188;-76
2022/05/08 02:14:28;;;;;;;16.40;14.53;;;;;;;12.25;92.60;97181.88;4959057;28;20185;-75
2022/05/08 02:16:54;;;;;;;17.23;14.57;;;;;;;12.26;92.10;97173.75;4957209;28;20174;-75
2022/05/08 02:19:19;;;;;;;16.30;14.37;;;;;;;12.03;93.73;97176.38;4962860;28;20181;-75
2022/05/08 02:21:44;;;;;;;15.63;14.10;;;;;;;12.09;93.58;97170.22;4974411;28;20248;-75
2022/05/08 02:24:10;;;;;;;15.00;13.53;;;;;;;11.93;94.94;97168.22;4975973;28;20193;-75
2022/05/08 02:26:35;;;;;;;18.13;14.60;;;;;;;11.93;95.17;97170.84;4973246;28;21819;-75
2022/05/08 02:29:00;;;;;;;19.60;16.63;;;;;;;11.90;95.66;97169.50;4956865;28;20201;-75
2022/05/08 02:31:26;;;;;;;20.23;17.93;;;;;;;11.80;95.96;97176.31;4965609;28;20233;-75
2022/05/08 02:33:51;;;;;;;21.70;18.30;;;;;;;11.95;95.20;97172.25;4975824;28;20192;-75
2022/05/08 02:36:16;;;;;;;19.57;17.30;;;;;;;11.84;96.08;97167.75;4960916;28;20181;-74
2022/05/08 02:38:42;;;;;;;21.50;17.77;;;;;;;11.73;96.34;97176.41;4956533;28;20273;-75
2022/05/08 02:41:07;;;;;;;20.57;17.63;;;;;;;11.70;96.83;97165.53;4963963;28;20205;-75
2022/05/08 02:43:32;;;;;;;19.83;17.40;;;;;;;11.72;97.06;97171.34;4975488;28;20191;-75
2022/05/08 02:46:00;;;;;;;20.37;17.33;;;;;;;11.69;97.47;97172.59;4975679;28;20219;-75
2022/05/08 02:48:27;;;;;;;19.53;16.27;;;;;;;11.66;97.98;97163.34;4975351;28;20216;-74
2022/05/08 02:50:52;;;;;;;20.37;17.13;;;;;;;11.72;98.13;97171.34;4974299;28;20652;-74
2022/05/08 02:53:17;;;;;;;20.60;16.40;;;;;;;11.77;97.77;97167.03;4960318;28;20213;-74
2022/05/08 02:58:33;;;;;;;19.10;16.73;;;;;;;11.79;97.43;97175.50;4956211;28;20589;-75
2022/05/08 03:01:01;;;;;;;19.90;17.27;;;;;;;12.04;95.85;97167.44;4956316;28;20697;-75
2022/05/08 03:03:27;;;;;;;19.23;16.73;;;;;;;12.00;96.16;97168.94;4957724;28;20613;-74
2022/05/08 03:05:53;;;;;;;22.23;17.30;;;;;;;11.83;96.52;97176.66;4975332;28;20233;-74
2022/05/08 03:08:19;;;;;;;20.57;18.10;;;;;;;11.68;97.61;97171.00;4973750;28;20185;-75
2022/05/08 03:13:33;;;;;;;22.37;19.97;;;;;;;11.55;99.34;97179.84;4972740;28;20716;-75
2022/05/08 03:15:58;;;;;;;26.53;19.50;;;;;;;11.58;99.05;97170.75;4961599;28;20236;-75
2022/05/08 03:18:24;;;;;;;23.00;19.40;;;;;;;11.43;99.60;97178.19;4963654;28;20185;-75
2022/05/08 03:20:49;;;;;;;24.50;20.27;;;;;;;11.47;99.50;97177.56;4955961;29;20240;-75
2022/05/08 03:23:15;;;;;;;25.33;20.40;;;;;;;11.50;98.89;97173.66;4956630;28;20189;-75
2022/05/08 03:25:40;;;;;;;22.93;19.47;;;;;;;11.45;99.62;97174.34;4974897;28;20238;-75
2022/05/08 03:28:06;;;;;;;22.40;19.77;;;;;;;11.42;99.62;97176.63;4967158;28;20185;-74
2022/05/08 03:30:31;;;;;;;24.00;20.43;;;;;;;11.46;99.40;97183.81;4954531;28;20193;-74
2022/05/08 03:32:58;;;;;;;23.07;20.10;;;;;;;11.38;99.51;97185.94;4955918;28;20269;-74
2022/05/08 03:35:24;;;;;;;24.43;20.87;;;;;;;11.35;100.00;97183.75;4955050;28;20213;-75
2022/05/08 03:37:49;;;;;;;23.97;20.23;;;;;;;11.23;100.00;97178.44;4955652;28;20228;-75
2022/05/08 03:40:15;;;;;;;24.03;20.80;;;;;;;11.12;100.00;97180.00;4963288;28;20292;-75
2022/05/08 03:42:41;;;;;;;25.30;20.13;;;;;;;11.16;100.00;97183.78;4957532;28;20188;-74
2022/05/08 03:45:07;;;;;;;27.33;20.93;;;;;;;11.19;100.00;97191.22;4973775;28;20244;-74
2022/05/08 03:47:33;;;;;;;22.57;19.50;;;;;;;11.08;100.00;97183.28;4974662;28;20197;-74
2022/05/08 03:49:58;;;;;;;25.40;20.97;;;;;;;11.08;100.00;97180.66;4974545;28;20199;-74
2022/05/08 03:52:23;;;;;;;24.87;21.03;;;;;;;11.01;100.00;97182.56;4974136;28;20699;-75
2022/05/08 03:54:49;;;;;;;24.37;21.40;;;;;;;11.02;100.00;97179.72;4973859;28;20346;-74
2022/05/08 03:57:14;;;;;;;26.03;21.80;;;;;;;10.96;100.00;97183.22;4972204;28;20220;-74
2022/05/08 03:59:40;;;;;;;28.23;22.00;;;;;;;11.21;100.00;97181.28;4946342;29;20642;-74
2022/05/08 04:02:05;;;;;;;25.33;21.73;;;;;;;11.23;100.00;97187.13;4961124;28;20673;-74
2022/05/08 04:04:30;;;;;;;25.10;20.97;;;;;;;11.30;100.00;97184.44;4974234;28;20283;-74
2022/05/08 04:06:56;;;;;;;24.93;21.47;;;;;;;11.26;100.00;97184.06;4974251;28;20192;-74
2022/05/08 04:09:22;;;;;;;22.93;19.77;;;;;;;11.31;100.00;97185.22;4973939;28;20653;-74
2022/05/08 04:11:47;;;;;;;26.33;21.70;;;;;;;11.13;100.00;97184.22;4973797;28;20180;-75
2022/05/08 04:14:13;;;;;;;23.87;20.77;;;;;;;11.22;100.00;97189.97;4972651;28;20184;-74
2022/05/08 04:16:38;;;;;;;28.27;20.20;;;;;;;11.18;100.00;97189.63;4965676;28;20225;-74
2022/05/08 04:19:05;;;;;;;24.37;19.80;;;;;;;11.08;100.00;97181.47;4949285;28;20192;-74
2022/05/08 04:21:31;;;;;;;23.80;19.50;;;;;;;11.25;100.00;97190.34;4973892;28;20218;-74
2022/05/08 04:26:41;;;;;;;23.87;19.43;;;;;;;11.10;100.00;97194.34;4973480;28;20188;-74
2022/05/08 04:29:06;;;;;;;24.57;19.03;;;;;;;11.12;100.00;97200.19;4968796;28;20189;-74
2022/05/08 04:31:32;;;;;;;21.20;18.70;;;;;;;11.13;100.00;97199.16;4954414;28;20185;-74
2022/05/08 04:33:57;;;;;;;21.97;19.27;;;;;;;11.16;100.00;97201.34;4954665;28;20682;-74
2022/05/08 04:36:23;;;;;;;22.47;19.47;;;;;;;11.19;100.00;97196.47;4954785;28;20209;-74
2022/05/08 04:38:48;;;;;;;22.80;19.33;;;;;;;11.55;99.03;97202.66;4970403;28;20272;-74
2022/05/08 04:41:13;;;;;;;21.10;18.80;;;;;;;11.44;99.76;97203.41;4954556;28;20569;-76
2022/05/08 04:43:39;;;;;;;22.03;18.43;;;;;;;11.65;99.21;97203.72;4937395;29;20209;-74
2022/05/08 04:46:04;;;;;;;23.20;19.13;;;;;;;11.52;100.00;97203.94;4954483;28;20200;-74
2022/05/08 04:48:30;;;;;;;22.10;19.73;;;;;;;11.59;99.69;97203.84;4969849;28;20191;-74
2022/05/08 04:50:55;;;;;;;21.87;19.17;;;;;;;11.41;100.00;97209.94;4973058;28;20212;-74
2022/05/08 04:53:20;;;;;;;23.03;19.13;;;;;;;11.52;100.00;97206.56;4972122;28;20212;-74
2022/05/08 04:55:46;;;;;;;24.10;19.40;;;;;;;11.39;100.00;97211.97;4973412;28;20208;-75
2022/05/08 04:58:11;;;;;;;21.57;19.03;;;;;;;11.40;100.00;97210.94;4962547;28;20201;-74
2022/05/08 05:00:37;;;;;;;21.33;18.80;;;;;;;11.42;100.00;97215.97;4954592;28;20213;-74
2022/05/08 05:03:03;;;;;;;22.30;19.00;;;;;;;11.68;98.47;97215.63;4967582;28;20201;-74
2022/05/08 05:05:29;;;;;;;21.67;19.10;;;;;;;11.73;98.79;97218.41;4971896;28;20235;-74
2022/05/08 05:07:54;;;;;;;22.33;19.97;;;;;;;11.64;99.44;97219.72;4954223;28;20185;-74
2022/05/08 05:10:20;;;;;;;23.00;19.80;;;;;;;11.83;98.23;97223.94;4937057;29;20284;-75
2022/05/08 05:12:45;;;;;;;22.10;19.47;;;;;;;11.66;99.56;97222.91;4965436;28;20271;-74
2022/05/08 05:15:11;;;;;;;25.17;19.67;;;;;;;11.65;99.31;97221.31;4973394;28;20264;-74
2022/05/08 05:17:37;;;;;;;21.73;18.13;;;;;;;11.38;100.00;97226.09;4955421;28;20503;-74
2022/05/08 05:20:03;;;;;;;22.53;19.27;;;;;;;11.73;99.44;97228.09;4959021;28;20693;-73
2022/05/08 05:22:29;;;;;;;20.73;18.00;;;;;;;11.90;98.08;97234.34;4973231;28;20192;-74
2022/05/08 05:24:56;;;;;;;20.53;18.30;;;;;;;11.72;99.04;97236.97;4959413;28;20260;-74
2022/05/08 05:27:22;;;;;;;25.63;19.07;;;;;;;11.87;98.66;97232.97;4954017;28;20208;-74
2022/05/08 05:29:48;;;;;;;21.53;18.87;;;;;;;11.95;97.53;97240.53;4953910;28;20229;-74
2022/05/08 05:32:13;;;;;;;25.53;19.47;;;;;;;11.77;98.64;97235.31;4961675;28;20592;-74
2022/05/08 05:34:39;;;;;;;20.63;18.43;;;;;;;11.79;98.50;97233.28;4962186;28;20559;-74
2022/05/08 05:37:04;;;;;;;20.90;18.67;;;;;;;12.02;97.29;97243.06;4954112;28;20194;-74
2022/05/08 05:39:30;;;;;;;21.30;17.60;;;;;;;11.92;98.93;97241.00;4954022;28;20185;-75
2022/05/08 05:41:55;;;;;;;23.50;19.23;;;;;;;12.09;96.65;97233.28;4958383;28;20189;-74
2022/05/08 05:44:20;;;;;;;24.90;18.80;;;;;;;11.99;98.46;97240.88;4964669;28;20487;-74
2022/05/08 05:49:30;;;;;;;20.33;18.23;;;;;;;12.31;95.24;97238.81;4953874;28;20228;-74
2022/05/08 05:51:56;;;;;;;21.87;17.50;;;;;;;12.27;95.63;97241.06;4957935;28;20701;-75
2022/05/08 05:54:22;;;;;;;22.90;18.87;;;;;;;12.54;94.33;97241.44;4972921;28;20207;-74
2022/05/08 05:56:48;;;;;;;20.57;18.20;;;;;;;12.68;92.92;97242.03;4973178;28;20189;-74
2022/05/08 05:59:14;;;;;;;18.97;16.97;;;;;;;12.48;92.47;97250.28;4975287;28;20543;-73
2022/05/08 06:01:39;;;;;;;20.17;17.77;;;;;;;12.65;92.24;97253.03;4976023;28;20288;-75
2022/05/08 06:04:04;;;;;;;20.17;16.80;;;;;;;12.05;95.85;97256.56;4974599;28;20339;-74
2022/05/08 06:06:30;;;;;;;18.13;16.23;;;;;;;12.02;96.63;97259.66;4975844;28;20181;-75
2022/05/08 06:08:55;;;;;;;19.50;17.03;;;;;;;11.79;98.72;97264.00;4976385;28;20187;-74
2022/05/08 06:11:21;;;;;;;21.63;16.40;;;;;;;12.42;96.05;97262.50;4963201;28;20201;-74
2022/05/08 06:13:46;;;;;;;21.03;17.90;;;;;;;12.86;92.48;97263.78;4957336;28;20185;-74
2022/05/08 06:16:11;;;;;;;19.10;16.83;;;;;;;12.73;92.29;97266.63;4960396;28;20712;-72
2022/05/08 06:18:37;;;;;;;18.40;16.40;;;;;;;12.50;93.86;97270.03;4975397;28;20659;-74
2022/05/08 06:21:03;;;;;;;20.57;16.67;;;;;;;12.64;93.70;97270.63;4975894;28;20262;-74
2022/05/08 06:23:28;;;;;;;18.90;16.90;;;;;;;12.82;92.26;97272.34;4975619;28;20193;-72
2022/05/08 06:25:54;;;;;;;18.03;15.57;;;;;;;13.13;90.52;97277.28;4975737;28;20630;-72
2022/05/08 06:28:19;;;;;;;20.10;16.53;;;;;;;12.54;93.14;97273.00;4974106;28;20181;-72
2022/05/08 06:30:48;;;;;;;18.17;16.27;;;;;;;12.82;93.85;97272.34;4967715;28;20221;-72
2022/05/08 06:33:14;;;;;;;18.63;15.87;;;;;;;13.22;90.76;97275.91;4956832;28;20189;-72
2022/05/08 06:35:40;;;;;;;17.47;15.60;;;;;;;13.37;89.81;97283.34;4970748;28;20177;-73
2022/05/08 06:38:12;;;;;;;18.30;16.20;;;;;;;13.57;89.00;97281.13;4974306;28;20239;-73
2022/05/08 06:40:39;;;;;;;19.47;15.23;;;;;;;13.67;87.99;97277.88;4975783;28;20219;-73
2022/05/08 06:43:05;;;;;;;18.53;16.20;;;;;;;13.60;88.68;97275.38;4975920;28;20242;-73
2022/05/08 06:45:31;;;;;;;17.63;15.83;;;;;;;13.92;87.32;97286.28;4961533;28;20192;-73
2022/05/08 06:47:56;;;;;;;18.17;16.27;;;;;;;13.77;89.02;97282.53;4970358;28;20189;-73
2022/05/08 06:50:22;;;;;;;17.40;15.57;;;;;;;14.11;87.81;97287.69;4974907;28;20240;-74
2022/05/08 06:52:47;;;;;;;17.43;15.30;;;;;;;14.34;86.15;97286.75;4967437;28;20181;-71
2022/05/08 06:55:13;;;;;;;17.03;15.33;;;;;;;14.49;85.68;97289.69;4956977;28;20534;-71
2022/05/08 06:57:38;;;;;;;16.00;14.30;;;;;;;14.33;85.46;97290.44;4956248;28;20284;-71
2022/05/08 07:02:49;;;;;;;17.23;13.50;;;;;;;13.97;85.41;97293.47;4940993;28;20232;-71
2022/05/08 07:05:14;;;;;;;16.37;14.27;;;;;;;13.81;88.00;97295.03;4961502;28;20279;-71
2022/05/08 07:07:40;;;;;;;15.33;13.80;;;;;;;13.90;87.29;97293.59;4975303;28;20191;-71
2022/05/08 07:10:05;;;;;;;15.60;13.90;;;;;;;13.70;87.89;97290.59;4956264;28;20220;-69
2022/05/08 07:12:30;;;;;;;15.97;13.73;;;;;;;13.52;89.98;97296.00;4958554;28;20194;-73
2022/05/08 07:14:56;;;;;;;16.10;14.33;;;;;;;13.65;89.40;97293.13;4974568;28;20252;-73
2022/05/08 07:17:23;;;;;;;17.23;14.57;;;;;;;13.43;92.08;97295.56;4974851;28;20208;-73
2022/05/08 07:19:49;;;;;;;16.83;13.57;;;;;;;13.91;88.72;97299.69;4974629;28;20224;-71
2022/05/08 07:22:17;;;;;;;14.43;12.60;;;;;;;14.49;85.03;97302.06;4974479;28;20231;-72
2022/05/08 07:24:43;;;;;;;17.30;14.97;;;;;;;14.73;83.68;97302.72;4957266;28;20186;-72
2022/05/08 07:27:11;;;;;;;13.97;12.47;;;;;;;14.86;82.96;97300.56;4955574;28;20185;-72
2022/05/08 07:29:37;;;;;;;13.93;12.37;;;;;;;14.66;82.64;97310.78;4964887;28;20185;-72
2022/05/08 07:32:03;;;;;;;12.97;11.67;;;;;;;15.13;81.28;97308.63;4974211;28;20181;-70
2022/05/08 07:37:12;;;;;;;13.20;11.80;;;;;;;15.44;79.39;97309.03;4974494;28;20187;-70
2022/05/08 07:39:37;;;;;;;13.13;11.73;;;;;;;15.31;79.18;97315.50;4974346;28;20193;-71
2022/05/08 07:42:03;;;;;;;12.73;11.50;;;;;;;15.37;79.86;97304.75;4945477;29;20185;-72
2022/05/08 07:44:28;;;;;;;12.60;11.40;;;;;;;15.84;76.52;97312.22;4955248;28;20209;-71
2022/05/08 07:46:53;;;;;;;11.47;10.27;;;;;;;15.40;77.77;97316.66;4957189;28;20193;-70
2022/05/08 07:49:19;;;;;;;11.13;9.97;;;;;;;15.54;75.88;97317.16;4974202;28;20185;-73
2022/05/08 07:51:44;;;;;;;11.00;9.80;;;;;;;15.50;76.19;97313.34;4955715;28;20185;-72
2022/05/08 07:54:09;;;;;;;10.70;9.60;;;;;;;15.54;76.03;97311.88;4955263;28;20200;-73
2022/05/08 07:56:35;;;;;;;11.43;9.70;;;;;;;15.95;74.16;97318.41;4955112;28;20216;-72
2022/05/08 07:59:00;;;;;;;10.40;9.40;;;;;;;15.86;73.87;97315.44;4955732;28;20205;-73
2022/05/08 08:01:26;;;;;;;10.30;9.30;;;;;;;16.39;72.08;97317.31;4952780;28;20681;-73
2022/05/08 08:03:51;;;;;;;10.27;9.17;;;;;;;16.18;72.58;97315.50;4973707;28;20298;-73
2022/05/08 08:06:17;;;;;;;10.17;8.93;;;;;;;16.77;70.42;97321.66;4974157;28;20292;-73
2022/05/08 08:08:42;;;;;;;10.40;9.20;;;;;;;16.80;69.54;97321.16;4973958;28;20176;-73
2022/05/08 08:11:09;;;;;;;9.43;8.43;;;;;;;17.27;67.55;97317.78;4972658;28;20633;-71
2022/05/08 08:13:35;;;;;;;10.17;9.17;;;;;;;17.42;66.81;97323.16;4973301;28;20217;-74
2022/05/08 08:16:02;;;;;;;9.37;8.37;;;;;;;17.96;65.37;97317.59;4941836;28;20236;-72
2022/05/08 08:18:28;;;;;;;10.27;8.97;;;;;;;17.59;65.80;97321.13;4966217;28;20677;-72
2022/05/08 08:20:54;;;;;;;10.73;9.10;;;;;;;17.43;66.04;97328.22;4954352;28;20205;-69
2022/05/08 08:23:19;;;;;;;10.00;8.68;;;;;;;17.20;67.04;97323.28;4954499;28;20282;-71
2022/05/08 08:25:45;;;;;;;9.73;8.55;;;;;;;17.73;66.03;97327.59;4954563;28;20200;-71
2022/05/08 08:28:10;;;;;;;10.13;8.60;;;;;;;17.65;65.60;97324.63;4954215;28;20246;-73
2022/05/08 08:30:36;;;;;;;9.63;8.73;;;;;;;17.35;65.62;97335.84;4954129;28;20189;-72
2022/05/08 08:33:02;;;;;;;9.73;8.73;;;;;;;17.54;65.96;97329.06;4954270;28;20283;-72
2022/05/08 08:35:27;;;;;;;11.25;9.98;;;;;;;17.68;66.29;97330.22;4969309;28;20564;-76
2022/05/08 08:37:53;;;;;;;10.63;9.53;;;;;;;17.91;65.15;97326.34;4956693;28;20189;-73
2022/05/08 08:40:20;;;;;;;10.60;9.57;;;;;;;18.62;64.11;97329.19;4973804;28;20208;-72
2022/05/08 08:42:46;;;;;;;11.40;10.18;;;;;;;17.97;65.58;97335.09;4973357;28;20725;-71
2022/05/08 08:48:09;;;;;;;11.75;10.07;;;;;;;17.90;64.94;97337.19;4972488;28;20240;-72
2022/05/08 08:50:34;;;;;;;10.80;9.73;;;;;;;17.79;65.55;97339.81;4973394;28;20184;-72
2022/05/08 08:53:05;;;;;;;11.00;8.90;;;;;;;17.57;65.67;97341.78;4963714;28;20181;-70
2022/05/08 08:55:31;;;;;;;9.80;8.48;;;;;;;17.68;65.88;97334.72;4953570;28;20243;-70
2022/05/08 08:57:57;;;;;;;10.52;9.25;;;;;;;17.70;66.02;97330.75;4957615;28;20658;-70
2022/05/08 09:00:23;;;;;;;12.50;9.67;;;;;;;17.79;65.96;97331.84;4953587;28;20243;-71
2022/05/08 09:02:50;;;;;;;11.30;10.10;;;;;;;17.44;67.29;97337.72;4953957;28;20185;-70
2022/05/08 09:05:16;;;;;;;8.87;8.07;;;;;;;17.59;65.70;97337.03;4953868;28;20243;-70
2022/05/08 09:07:46;;;;;;;9.60;8.60;;;;;;;17.46;64.97;97335.63;4954073;28;20650;-70
2022/05/08 09:10:13;;;;;;;9.43;8.53;;;;;;;17.96;64.14;97328.19;4957420;28;20214;-70
2022/05/08 09:12:40;;;;;;;8.77;7.88;;;;;;;17.51;64.56;97332.22;4973185;28;20176;-70
2022/05/08 09:15:26;;;;;;;9.65;8.65;;;;;;;17.60;64.41;97346.63;4972752;28;20232;-71
2022/05/08 09:17:55;;;;;;;8.73;7.83;;;;;;;17.43;63.12;97340.66;4973129;28;20625;-71
2022/05/08 09:20:34;;;;;;;10.10;8.53;;;;;;;17.57;64.15;97341.78;4973482;28;20216;-69
2022/05/08 09:23:04;;;;;;;10.20;8.70;;;;;;;17.73;63.82;97340.84;4964805;28;20196;-70
2022/05/08 09:25:46;;;;;;;9.60;8.68;;;;;;;17.19;66.05;97347.38;4952751;28;20189;-70
2022/05/08 09:28:18;;;;;;;9.23;7.80;;;;;;;17.75;64.31;97344.03;4956202;28;20233;-70
2022/05/08 09:31:03;;;;;;;9.65;8.52;;;;;;;18.06;62.97;97344.16;4972504;28;20564;-70
2022/05/08 09:33:42;;;;;;;9.83;8.83;;;;;;;17.49;63.87;97329.03;4976454;28;20184;-70
2022/05/08 09:36:18;;;;;;;9.23;8.33;;;;;;;17.77;64.18;97333.19;4975636;28;20243;-70
2022/05/08 09:38:47;;;;;;;9.57;8.13;;;;;;;18.01;64.19;97330.88;4958336;28;20177;-71
2022/05/08 09:41:15;;;;;;;9.63;8.70;;;;;;;17.93;63.86;97326.88;4957903;28;20227;-70
2022/05/08 09:43:41;;;;;;;9.82;8.73;;;;;;;18.10;63.63;97324.81;4958006;28;20593;-69
2022/05/08 09:46:08;;;;;;;10.45;9.32;;;;;;;18.10;63.80;97324.81;4959998;28;20192;-71
2022/05/08 09:48:34;;;;;;;9.57;8.57;;;;;;;18.24;63.41;97336.53;4975560;28;20661;-69
2022/05/08 09:51:07;;;;;;;8.73;7.90;;;;;;;18.21;63.03;97329.09;4976729;28;20191;-69
2022/05/08 09:53:34;;;;;;;9.55;8.65;;;;;;;18.04;62.49;97331.16;4977294;28;20570;-70
2022/05/08 09:56:03;;;;;;;8.77;7.82;;;;;;;18.09;63.52;97325.06;4975386;28;20247;-70
2022/05/08 09:58:28;;;;;;;12.05;8.45;;;;;;;18.28;63.12;97326.97;4957836;28;20205;-72
2022/05/08 10:00:57;;;;;;;11.30;8.30;;;;;;;18.20;61.24;97338.09;4957809;28;20197;-71
2022/05/08 10:03:23;;;;;;;8.98;7.90;;;;;;;18.25;61.48;97327.50;4957790;28;20208;-71
2022/05/08 10:05:49;;;;;;;8.68;7.75;;;;;;;18.29;61.98;97327.78;4972758;28;20200;-71
2022/05/08 10:08:18;;;;;;;10.25;7.75;;;;;;;17.99;62.94;97327.69;4957660;28;20316;-71
2022/05/08 10:13:53;;;;;;;9.25;8.30;;;;;;;18.69;61.91;97327.06;4957372;28;20212;-71
2022/05/08 10:16:47;;;;;;;9.30;8.25;;;;;;;18.79;59.06;97324.41;4957698;28;20233;-71
2022/05/08 10:19:24;;;;;;;7.80;7.10;;;;;;;18.84;59.41;97329.72;4957096;28;20665;-72
2022/05/08 10:21:56;;;;;;;7.57;6.80;;;;;;;18.92;59.73;97320.44;4958348;28;20214;-72
2022/05/08 10:24:28;;;;;;;7.53;6.78;;;;;;;18.78;58.81;97325.47;4973989;28;20655;-72
2022/05/08 10:27:19;;;;;;;7.38;6.68;;;;;;;18.56;60.24;97320.41;4976456;28;20203;-69
2022/05/08 10:29:50;;;;;;;7.82;6.85;;;;;;;18.79;57.37;97316.44;4975805;28;20177;-70
2022/05/08 10:32:44;;;;;;;6.65;5.85;;;;;;;19.33;56.25;97319.34;4975588;28;20238;-71
2022/05/08 10:35:20;;;;;;;5.53;5.03;;;;;;;18.98;54.84;97325.47;4948957;28;20193;-71
2022/05/08 10:37:46;;;;;;;5.28;4.72;;;;;;;19.02;55.57;97321.22;4976194;28;20184;-71
2022/05/08 10:40:23;;;;;;;6.25;4.60;;;;;;;19.39;53.79;97322.78;4959700;28;20216;-74
2022/05/08 10:42:54;;;;;;;5.18;4.22;;;;;;;19.20;51.13;97327.06;4941172;28;20204;-73
2022/05/08 10:45:32;;;;;;;7.20;3.88;;;;;;;19.03;51.28;97311.41;4965149;28;20215;-72
2022/05/08 10:48:03;;;;;;;4.65;4.00;;;;;;;19.15;52.19;97301.28;4963364;28;20197;-72
2022/05/08 10:50:29;;;;;;;4.80;4.30;;;;;;;19.03;52.64;97322.03;4957133;28;20261;-72
2022/05/08 10:52:54;;;;;;;6.07;4.72;;;;;;;19.00;52.73;97310.06;4974186;28;20189;-72
2022/05/08 10:55:19;;;;;;;5.07;4.40;;;;;;;19.02;52.82;97326.53;4975763;28;20195;-72
2022/05/08 10:57:47;;;;;;;4.78;4.38;;;;;;;19.39;52.87;97314.81;4969362;28;20181;-72
2022/05/08 11:00:17;;;;;;;6.28;4.70;;;;;;;19.40;52.01;97319.03;4961273;28;20240;-72
2022/05/08 11:02:51;;;;;;;5.07;4.55;;;;;;;19.36;52.53;97312.66;4959100;28;20635;-72
2022/05/08 11:05:20;;;;;;;10.00;4.95;;;;;;;19.18;52.33;97306.06;4972639;28;20192;-73
2022/05/08 11:08:07;;;;;;;7.03;4.80;;;;;;;19.16;53.64;97310.06;4967225;28;20277;-72
2022/05/08 11:10:34;;;;;;;6.63;4.90;;;;;;;19.23;53.35;97322.00;4965343;28;20207;-72
2022/05/08 11:13:02;;;;;;;6.18;4.40;;;;;;;19.87;51.19;97311.47;4956691;28;20538;-72
2022/05/08 11:15:36;;;;;;;4.70;4.30;;;;;;;20.22;50.80;97315.84;4957116;28;20264;-72
2022/05/08 11:18:12;;;;;;;5.07;4.25;;;;;;;19.61;51.10;97309.97;4968416;28;20200;-73
2022/05/08 11:21:02;;;;;;;5.43;4.47;;;;;;;20.07;50.66;97313.22;4973258;28;20209;-72
2022/05/08 11:23:33;;;;;;;4.68;4.28;;;;;;;19.85;51.61;97320.78;4956063;28;20607;-72
2022/05/08 11:26:04;;;;;;;5.65;4.75;;;;;;;19.81;51.89;97317.88;4956198;28;20194;-72
2022/05/08 11:28:30;;;;;;;5.10;4.70;;;;;;;20.11;50.74;97316.16;4955945;28;20277;-74
2022/05/08 11:30:57;;;;;;;6.32;4.78;;;;;;;20.16;50.29;97311.59;4959219;28;20184;-73
2022/05/08 11:36:30;;;;;;;7.78;4.95;;;;;;;20.51;49.17;97329.25;4970055;28;20265;-72
2022/05/08 11:39:04;;;;;;;5.57;4.45;;;;;;;20.45;50.36;97309.03;4974494;28;20180;-72
2022/05/08 11:41:32;;;;;;;3.90;3.50;;;;;;;20.29;48.61;97304.84;4957247;28;20210;-72
2022/05/08 11:44:02;;;;;;;3.90;3.55;;;;;;;20.10;47.80;97310.03;4955238;28;20193;-72
2022/05/08 11:46:36;;;;;;;3.63;3.33;;;;;;;20.09;47.77;97310.31;4970303;28;20275;-71
2022/05/08 11:49:15;;;;;;;3.33;3.05;;;;;;;19.99;46.83;97307.69;4974841;28;20195;-71